Time;durP1;ratioP1;P1;durP2;ratioP2;P2;SDS_P1;SDS_P2;PMS_P1;PMS_P2;Temp;Humidity;BMP_temperature;BMP_pressure;BME280_temperature;BME280_humidity;BME280_pressure;Samples;Min_cycle;Max_cycle;Signal;HPM_P1;HPM_P2
2021/03/25 00:01:34;;;;;;;93.53;40.58;;;;;;;;;;4953504;29;20039;-50
2021/03/25 00:04:00;;;;;;;123.57;49.13;;;;;;;;;;4953591;29;20066;-49
2021/03/25 00:06:27;;;;;;;146.65;53.13;;;;;;;;;;4952307;29;20043;-50
2021/03/25 00:08:54;;;;;;;132.02;52.88;;;;;;;;;;4952077;29;20044;-49
2021/03/25 00:11:20;;;;;;;115.20;46.75;;;;;;;;;;4951824;29;20543;-48
2021/03/25 00:13:46;;;;;;;104.00;43.35;;;;;;;;;;4952080;29;20035;-51
2021/03/25 00:16:13;;;;;;;114.18;45.67;;;;;;;;;;4951979;29;20047;-52
2021/03/25 00:18:39;;;;;;;99.88;42.20;;;;;;;;;;4951403;28;20039;-50
2021/03/25 00:21:07;;;;;;;71.30;34.50;;;;;;;;;;4951907;29;20042;-50
2021/03/25 00:23:33;;;;;;;67.43;33.92;;;;;;;;;;4952944;29;20035;-50
2021/03/25 00:26:00;;;;;;;60.15;31.25;;;;;;;;;;4953499;29;20090;-49
2021/03/25 00:28:26;;;;;;;97.20;50.08;;;;;;;;;;4953293;29;20035;-49
2021/03/25 00:30:56;;;;;;;91.20;44.35;;;;;;;;;;4953592;29;20031;-49
2021/03/25 00:33:23;;;;;;;58.13;32.28;;;;;;;;;;4953248;29;20023;-50
2021/03/25 00:35:49;;;;;;;57.97;31.60;;;;;;;;;;4982497;28;20046;-49
2021/03/25 00:38:16;;;;;;;60.00;31.02;;;;;;;;;;5012667;28;20536;-50
2021/03/25 00:40:46;;;;;;;42.33;25.98;;;;;;;;;;5013578;28;20056;-50
2021/03/25 00:43:13;;;;;;;60.33;31.15;;;;;;;;;;5012389;28;20058;-50
2021/03/25 00:45:40;;;;;;;51.75;28.95;;;;;;;;;;5013642;28;20026;-50
2021/03/25 00:48:07;;;;;;;57.20;30.65;;;;;;;;;;5013497;28;20029;-49
2021/03/25 00:50:34;;;;;;;48.42;28.38;;;;;;;;;;5012094;28;20104;-49
2021/03/25 00:53:01;;;;;;;47.83;26.50;;;;;;;;;;5013439;28;20073;-50
2021/03/25 00:55:27;;;;;;;64.32;34.22;;;;;;;;;;5013578;28;20073;-49
2021/03/25 00:57:53;;;;;;;52.00;29.20;;;;;;;;;;5013550;28;20437;-50
2021/03/25 01:00:22;;;;;;;48.55;29.15;;;;;;;;;;5013298;28;20026;-49
2021/03/25 01:02:53;;;;;;;50.47;28.60;;;;;;;;;;5013475;28;20492;-50
2021/03/25 01:05:22;;;;;;;54.20;30.20;;;;;;;;;;5013426;28;20026;-51
2021/03/25 01:07:49;;;;;;;52.28;27.98;;;;;;;;;;5013302;28;20058;-51
2021/03/25 01:10:20;;;;;;;53.95;28.88;;;;;;;;;;5013046;28;20029;-48
2021/03/25 01:12:46;;;;;;;59.22;30.83;;;;;;;;;;5013448;28;20401;-49
2021/03/25 01:15:12;;;;;;;58.10;31.02;;;;;;;;;;5013288;28;20033;-51
2021/03/25 01:17:44;;;;;;;55.58;30.63;;;;;;;;;;5028108;28;20030;-52
2021/03/25 01:20:10;;;;;;;;;;;;;;;;;;5013613;28;20061;-52
2021/03/25 01:22:36;;;;;;;71.63;33.92;;;;;;;;;;5013198;28;19905;-51
2021/03/25 01:25:03;;;;;;;85.38;39.45;;;;;;;;;;5013435;28;20110;-51
2021/03/25 01:27:29;;;;;;;75.70;35.05;;;;;;;;;;5013189;28;20481;-51
2021/03/25 01:29:55;;;;;;;82.25;38.03;;;;;;;;;;5013208;28;20097;-51
2021/03/25 01:32:21;;;;;;;72.50;35.00;;;;;;;;;;5013241;28;20030;-51
2021/03/25 01:34:51;;;;;;;84.25;36.55;;;;;;;;;;5012832;28;20112;-51
2021/03/25 01:37:17;;;;;;;100.25;42.88;;;;;;;;;;5013277;28;20521;-48
2021/03/25 01:39:43;;;;;;;86.35;35.00;;;;;;;;;;5013067;28;20033;-53
2021/03/25 01:42:20;;;;;;;83.30;36.58;;;;;;;;;;5012947;28;20040;-50
2021/03/25 01:44:46;;;;;;;90.28;38.05;;;;;;;;;;5012992;28;20022;-50
2021/03/25 01:47:12;;;;;;;72.18;32.97;;;;;;;;;;5013090;28;20050;-51
2021/03/25 01:49:38;;;;;;;73.93;35.20;;;;;;;;;;5015664;28;20109;-51
2021/03/25 01:52:19;;;;;;;61.58;31.77;;;;;;;;;;5016817;28;20462;-50
2021/03/25 01:55:11;;;;;;;60.40;32.30;;;;;;;;;;5016437;28;20041;-50
2021/03/25 01:57:54;;;;;;;68.95;36.50;;;;;;;;;;5001197;28;20120;-52
2021/03/25 02:00:32;;;;;;;60.88;32.47;;;;;;;;;;5016351;28;20029;-49
2021/03/25 02:03:02;;;;;;;69.22;36.97;;;;;;;;;;5016368;28;20029;-51
2021/03/25 02:05:33;;;;;;;55.55;29.77;;;;;;;;;;5016480;28;20026;-52
2021/03/25 02:08:02;;;;;;;68.28;35.58;;;;;;;;;;5016523;28;20469;-48
2021/03/25 02:10:34;;;;;;;52.55;29.95;;;;;;;;;;5015967;28;20066;-50
2021/03/25 02:13:22;;;;;;;68.32;36.08;;;;;;;;;;5016184;28;20168;-51
2021/03/25 02:15:51;;;;;;;61.63;32.38;;;;;;;;;;5016030;28;20069;-51
2021/03/25 02:18:36;;;;;;;77.78;41.05;;;;;;;;;;5016249;28;20502;-48
2021/03/25 02:21:10;;;;;;;61.85;33.58;;;;;;;;;;5016101;28;20033;-51
2021/03/25 02:23:39;;;;;;;82.00;40.55;;;;;;;;;;5016216;28;20044;-49
2021/03/25 02:26:05;;;;;;;70.45;34.85;;;;;;;;;;5016143;28;20029;-52
2021/03/25 02:28:48;;;;;;;109.40;53.75;;;;;;;;;;5015903;28;20023;-48
2021/03/25 02:31:18;;;;;;;75.32;40.42;;;;;;;;;;5015811;28;20481;-51
2021/03/25 02:33:49;;;;;;;79.07;39.15;;;;;;;;;;5015990;28;20060;-50
2021/03/25 02:36:17;;;;;;;81.13;42.47;;;;;;;;;;5015646;28;20042;-50
2021/03/25 02:38:45;;;;;;;69.90;36.95;;;;;;;;;;5015777;28;20029;-51
2021/03/25 02:41:11;;;;;;;98.07;49.55;;;;;;;;;;5015703;28;20058;-50
2021/03/25 02:43:46;;;;;;;69.75;37.97;;;;;;;;;;5015623;28;20032;-50
2021/03/25 02:46:31;;;;;;;88.13;42.38;;;;;;;;;;5015490;28;20061;-50
2021/03/25 02:49:00;;;;;;;91.68;45.00;;;;;;;;;;5015786;28;20061;-51
2021/03/25 02:51:33;;;;;;;87.53;43.78;;;;;;;;;;5015823;28;20037;-50
2021/03/25 02:53:59;;;;;;;93.57;48.25;;;;;;;;;;5015440;28;20049;-49
2021/03/25 02:56:27;;;;;;;96.78;47.38;;;;;;;;;;5015402;28;20482;-50
2021/03/25 02:58:56;;;;;;;81.03;42.60;;;;;;;;;;5015421;28;20026;-47
2021/03/25 03:01:22;;;;;;;78.85;38.92;;;;;;;;;;5014411;28;20470;-51
2021/03/25 03:04:08;;;;;;;74.85;37.38;;;;;;;;;;5015380;28;20026;-49
2021/03/25 03:06:37;;;;;;;82.63;43.42;;;;;;;;;;5015241;28;20029;-49
2021/03/25 03:09:05;;;;;;;86.60;40.92;;;;;;;;;;5015208;28;20022;-50
2021/03/25 03:11:37;;;;;;;80.38;39.53;;;;;;;;;;5014734;28;20053;-51
2021/03/25 03:14:05;;;;;;;65.72;33.60;;;;;;;;;;5015322;28;20037;-50
2021/03/25 03:16:46;;;;;;;78.65;39.63;;;;;;;;;;5014852;28;20045;-50
2021/03/25 03:19:14;;;;;;;84.40;42.38;;;;;;;;;;5014928;28;20382;-51
2021/03/25 03:21:42;;;;;;;78.35;39.78;;;;;;;;;;5014996;28;20033;-50
2021/03/25 03:24:10;;;;;;;83.22;43.50;;;;;;;;;;5015045;28;20022;-51
2021/03/25 03:26:39;;;;;;;107.00;51.30;;;;;;;;;;5014764;28;20394;-51
2021/03/25 03:29:06;;;;;;;90.60;46.42;;;;;;;;;;5014754;28;20101;-49
2021/03/25 03:31:47;;;;;;;88.97;45.25;;;;;;;;;;5014654;28;20032;-50
2021/03/25 03:34:16;;;;;;;88.03;45.10;;;;;;;;;;5014964;28;20025;-49
2021/03/25 03:36:43;;;;;;;91.97;47.50;;;;;;;;;;5014649;28;20034;-50
2021/03/25 03:39:11;;;;;;;94.03;47.45;;;;;;;;;;5014961;28;20064;-50
2021/03/25 03:41:48;;;;;;;93.60;46.70;;;;;;;;;;5014391;28;20037;-47
2021/03/25 03:44:18;;;;;;;96.68;49.45;;;;;;;;;;5014587;28;20049;-51
2021/03/25 03:46:45;;;;;;;79.32;41.55;;;;;;;;;;5014418;28;20040;-50
2021/03/25 03:49:18;;;;;;;84.13;40.17;;;;;;;;;;5014422;28;20037;-51
2021/03/25 03:52:04;;;;;;;62.88;32.80;;;;;;;;;;5014755;28;20109;-51
2021/03/25 03:54:30;;;;;;;63.22;32.30;;;;;;;;;;5014291;28;20029;-51
2021/03/25 03:57:08;;;;;;;64.50;33.83;;;;;;;;;;5014396;28;20061;-51
2021/03/25 04:00:01;;;;;;;64.03;32.78;;;;;;;;;;5014298;28;20057;-52
2021/03/25 04:02:42;;;;;;;66.38;33.92;;;;;;;;;;5014239;28;20050;-50
2021/03/25 04:05:19;;;;;;;58.58;33.28;;;;;;;;;;5014297;28;20389;-48
2021/03/25 04:07:48;;;;;;;64.80;35.25;;;;;;;;;;5014271;28;20037;-52
2021/03/25 04:10:16;;;;;;;64.35;33.88;;;;;;;;;;5013755;28;20034;-51
2021/03/25 04:12:45;;;;;;;58.28;32.85;;;;;;;;;;5013950;28;20429;-51
2021/03/25 04:15:15;;;;;;;56.83;32.78;;;;;;;;;;5014134;28;20030;-51
2021/03/25 04:17:44;;;;;;;56.95;33.60;;;;;;;;;;5013912;28;20022;-52
2021/03/25 04:20:14;;;;;;;52.35;31.90;;;;;;;;;;5014020;28;20433;-51
2021/03/25 04:22:42;;;;;;;59.78;33.72;;;;;;;;;;5014137;28;20018;-51
2021/03/25 04:25:09;;;;;;;61.45;34.28;;;;;;;;;;5013750;28;20486;-51
2021/03/25 04:28:09;;;;;;;70.97;38.20;;;;;;;;;;5013762;28;20490;-52
2021/03/25 04:30:42;;;;;;;66.45;35.38;;;;;;;;;;4972668;28;20514;-52
2021/03/25 04:33:09;;;;;;;72.25;37.40;;;;;;;;;;4973190;28;20447;-48
2021/03/25 04:35:35;;;;;;;68.53;35.45;;;;;;;;;;4972489;28;20066;-52
2021/03/25 04:38:01;;;;;;;71.55;36.63;;;;;;;;;;4972940;28;20031;-52
2021/03/25 04:40:30;;;;;;;83.13;34.92;;;;;;;;;;4972523;28;20046;-52
2021/03/25 04:42:57;;;;;;;84.25;35.47;;;;;;;;;;4972794;28;20440;-52
2021/03/25 04:45:25;;;;;;;77.07;34.83;;;;;;;;;;4972751;28;20101;-52
2021/03/25 04:47:53;;;;;;;65.85;34.65;;;;;;;;;;4972351;28;20395;-52
2021/03/25 04:50:24;;;;;;;60.33;31.52;;;;;;;;;;4972523;28;20037;-52
2021/03/25 04:52:59;;;;;;;64.18;33.88;;;;;;;;;;4972558;28;20062;-52
2021/03/25 04:55:26;;;;;;;62.90;33.50;;;;;;;;;;4972611;28;20054;-52
2021/03/25 04:57:56;;;;;;;79.40;37.90;;;;;;;;;;4972458;28;20034;-52
2021/03/25 05:00:41;;;;;;;70.53;34.60;;;;;;;;;;4972506;28;20042;-53
2021/03/25 05:03:09;;;;;;;144.05;36.22;;;;;;;;;;4972493;28;20175;-50
2021/03/25 05:05:35;;;;;;;85.35;32.78;;;;;;;;;;4982390;28;20045;-51
2021/03/25 05:08:06;;;;;;;66.13;30.40;;;;;;;;;;5013594;28;20032;-51
2021/03/25 05:10:44;;;;;;;67.30;30.13;;;;;;;;;;5013069;28;20046;-51
2021/03/25 05:13:42;;;;;;;71.43;31.20;;;;;;;;;;5013487;28;20509;-52
2021/03/25 05:16:21;;;;;;;90.05;31.85;;;;;;;;;;4972315;28;20058;-49
2021/03/25 05:18:59;;;;;;;59.83;25.98;;;;;;;;;;4972129;28;20115;-52
2021/03/25 05:21:33;;;;;;;105.93;23.33;;;;;;;;;;4972193;28;20031;-51
2021/03/25 05:24:04;;;;;;;119.88;24.73;;;;;;;;;;4973902;28;20027;-50
2021/03/25 05:26:35;;;;;;;54.75;24.05;;;;;;;;;;4975945;28;20046;-51
2021/03/25 05:29:05;;;;;;;39.00;21.60;;;;;;;;;;4976083;28;20098;-52
2021/03/25 05:31:32;;;;;;;44.63;23.00;;;;;;;;;;4976017;28;20042;-51
2021/03/25 05:34:00;;;;;;;41.90;23.50;;;;;;;;;;4975868;28;20030;-51
2021/03/25 05:36:29;;;;;;;46.20;23.13;;;;;;;;;;4975673;28;20569;-51
2021/03/25 05:38:55;;;;;;;48.38;25.33;;;;;;;;;;4976020;28;20586;-52
2021/03/25 05:41:27;;;;;;;60.42;29.73;;;;;;;;;;4975624;28;20097;-50
2021/03/25 05:44:12;;;;;;;55.72;28.80;;;;;;;;;;4975613;28;20505;-51
2021/03/25 05:46:47;;;;;;;49.90;27.45;;;;;;;;;;4975567;28;20138;-51
2021/03/25 05:49:13;;;;;;;53.95;29.95;;;;;;;;;;4975850;28;20031;-50
2021/03/25 05:51:58;;;;;;;56.00;27.33;;;;;;;;;;4994315;28;20045;-50
2021/03/25 05:54:32;;;;;;;51.42;26.48;;;;;;;;;;5016447;28;20105;-51
2021/03/25 05:57:17;;;;;;;66.53;30.42;;;;;;;;;;5016468;28;20033;-48
2021/03/25 06:00:01;;;;;;;65.00;33.90;;;;;;;;;;5016485;28;20029;-49
2021/03/25 06:02:44;;;;;;;79.65;40.50;;;;;;;;;;5016363;28;20056;-49
2021/03/25 06:05:12;;;;;;;105.70;50.95;;;;;;;;;;5016478;28;20029;-50
2021/03/25 06:07:43;;;;;;;61.30;33.00;;;;;;;;;;5016374;28;20399;-50
2021/03/25 06:10:16;;;;;;;81.95;49.30;;;;;;;;;;5015282;28;20061;-49
2021/03/25 06:12:42;;;;;;;71.35;40.40;;;;;;;;;;5015356;28;20038;-50
2021/03/25 06:15:14;;;;;;;60.13;34.10;;;;;;;;;;5016106;28;20382;-50
2021/03/25 06:17:58;;;;;;;51.30;31.75;;;;;;;;;;5016103;28;20092;-50
2021/03/25 06:20:31;;;;;;;42.72;26.83;;;;;;;;;;5016197;28;20054;-51
2021/03/25 06:23:00;;;;;;;39.83;26.58;;;;;;;;;;5016206;28;20100;-50
2021/03/25 06:25:39;;;;;;;40.80;27.92;;;;;;;;;;5016141;28;20030;-51
2021/03/25 06:28:13;;;;;;;45.08;29.55;;;;;;;;;;5015870;28;20026;-51
2021/03/25 06:30:41;;;;;;;43.40;28.63;;;;;;;;;;5015946;28;20022;-51
2021/03/25 06:33:07;;;;;;;45.65;30.38;;;;;;;;;;5015641;28;20036;-51
2021/03/25 06:35:37;;;;;;;46.42;30.15;;;;;;;;;;5014533;28;20033;-51
2021/03/25 06:38:15;;;;;;;45.92;32.90;;;;;;;;;;5015769;28;20032;-51
2021/03/25 06:40:45;;;;;;;56.88;38.22;;;;;;;;;;5015516;28;20030;-51
2021/03/25 06:43:17;;;;;;;53.33;37.85;;;;;;;;;;5015580;28;20022;-51
2021/03/25 06:45:46;;;;;;;61.95;43.70;;;;;;;;;;5015829;28;20377;-51
2021/03/25 06:48:12;;;;;;;63.03;43.35;;;;;;;;;;5015423;28;20026;-52
2021/03/25 06:50:41;;;;;;;51.75;38.95;;;;;;;;;;5015598;28;20029;-52
2021/03/25 06:53:09;;;;;;;52.70;39.63;;;;;;;;;;5015386;28;20029;-53
2021/03/25 06:55:36;;;;;;;58.90;42.47;;;;;;;;;;5015626;28;20025;-51
2021/03/25 06:58:07;;;;;;;57.38;41.38;;;;;;;;;;5015426;28;20033;-52
2021/03/25 07:00:37;;;;;;;62.92;48.22;;;;;;;;;;5015323;28;20022;-52
2021/03/25 07:03:06;;;;;;;72.07;54.45;;;;;;;;;;5015240;28;20058;-51
2021/03/25 07:05:33;;;;;;;77.30;57.58;;;;;;;;;;5015292;28;20549;-51
2021/03/25 07:08:16;;;;;;;79.95;58.95;;;;;;;;;;5015296;28;20101;-51
2021/03/25 07:10:43;;;;;;;80.07;62.70;;;;;;;;;;5014868;28;20048;-52
2021/03/25 07:13:13;;;;;;;69.10;55.63;;;;;;;;;;5015072;28;20096;-51
2021/03/25 07:15:40;;;;;;;65.15;56.15;;;;;;;;;;5015153;28;20041;-52
2021/03/25 07:18:13;;;;;;;77.80;69.78;;;;;;;;;;5015132;28;20049;-49
2021/03/25 07:20:40;;;;;;;70.93;63.05;;;;;;;;;;5014910;28;20058;-51
2021/03/25 07:23:08;;;;;;;78.53;70.97;;;;;;;;;;5015003;28;20033;-52
2021/03/25 07:25:35;;;;;;;87.97;78.53;;;;;;;;;;5014770;28;20033;-51
2021/03/25 07:28:03;;;;;;;85.28;70.03;;;;;;;;;;5015069;28;20355;-52
2021/03/25 07:31:03;;;;;;;86.55;72.45;;;743.20;435.20;;;;;;5014993;28;20037;-54
2021/03/25 07:33:31;;;;;;;73.13;53.30;;;;;;;;;;5014724;28;20049;-53
2021/03/25 07:36:12;;;;;;;60.05;43.55;;;614.80;588.80;;;;;;5014610;28;20045;-52
2021/03/25 07:38:39;;;;;;;73.00;51.15;;;;;;;;;;5014695;28;20030;-52
2021/03/25 07:41:17;;;;;;;76.40;54.70;;;;;;;;;;5014423;28;20120;-52
2021/03/25 07:43:54;;;;;;;89.43;60.53;;;;;;;;;;5014606;28;20168;-51
2021/03/25 07:46:23;;;;;;;76.28;52.20;;;;;;;;;;5014173;28;20029;-52
2021/03/25 07:49:16;;;;;;;90.13;59.45;;;;;;;;;;5014077;28;20084;-50
2021/03/25 07:51:47;;;;;;;93.03;59.95;;;;;;;;;;5013156;28;20030;-52
2021/03/25 07:54:15;;;;;;;89.20;54.15;;;;;;;;;;5014445;28;20109;-52
2021/03/25 07:56:58;;;;;;;95.55;54.40;;;;;;;;;;5014324;28;20096;-52
2021/03/25 07:59:28;;;;;;;101.47;63.90;;;;;;;;;;5014127;28;20037;-52
2021/03/25 08:01:54;;;;;;;93.40;62.38;;;;;;;;;;5014371;28;20096;-51
2021/03/25 08:04:24;;;;;;;46.33;30.23;;;;;;;;;;5014305;28;20030;-49
2021/03/25 08:06:59;;;;;;;55.15;35.42;;;;;;;;;;5014336;28;20025;-52
2021/03/25 08:09:27;;;;;;;51.72;32.95;;;;;;;;;;5014007;28;20141;-52
2021/03/25 08:11:53;;;;;;;46.25;32.25;;;;;;;;;;5013754;28;20050;-52
2021/03/25 08:14:19;;;;;;;78.32;49.15;;;;;;;;;;5013983;28;20105;-48
2021/03/25 08:16:46;;;;;;;53.05;34.67;;;;;;;;;;5013937;28;20038;-52
2021/03/25 08:19:31;;;;;;;58.22;35.25;;;;;;;;;;5013897;28;20054;-52
2021/03/25 08:22:12;;;;;;;54.70;37.65;;;;;;;;;;5013901;28;20025;-52
2021/03/25 08:24:41;;;;;;;39.75;26.08;;;;;;;;;;5013696;28;20038;-51
2021/03/25 08:27:07;;;;;;;44.63;29.17;;;;;;;;;;5013819;28;20061;-53
2021/03/25 08:29:48;;;;;;;61.25;36.00;;;;;;;;;;5013823;28;20030;-52
2021/03/25 08:32:17;;;;;;;49.80;30.70;;;;;;;;;;5013825;28;20049;-52
2021/03/25 08:35:13;;;;;;;43.67;25.95;;;;;;;;;;5013722;28;20100;-52
2021/03/25 08:37:48;;;;;;;40.35;26.88;;;;;;;;;;4991961;28;20047;-51
2021/03/25 08:40:25;;;;;;;41.28;26.08;;;;;;;;;;4991887;28;20044;-53
2021/03/25 08:42:54;;;;;;;62.13;39.13;;;;;;;;;;4991854;28;20129;-52
2021/03/25 08:45:27;;;;;;;36.58;24.95;;;;;;;;;;4991929;28;20049;-52
2021/03/25 08:47:59;;;;;;;36.53;24.02;;;;;;;;;;4991657;28;20073;-50
2021/03/25 08:50:34;;;;;;;41.35;26.52;;;;;;;;;;4992373;28;20034;-51
2021/03/25 08:53:03;;;;;;;30.05;20.13;;;;;;;;;;4992009;28;20026;-51
2021/03/25 08:55:32;;;;;;;27.42;19.17;;;;;;;;;;4991740;28;20031;-52
2021/03/25 08:58:00;;;;;;;23.85;17.70;;;;;;;;;;4992027;28;20065;-51
2021/03/25 09:00:28;;;;;;;36.72;23.33;;;;;;;;;;4995956;28;20062;-53
2021/03/25 09:02:59;;;;;;;36.85;20.48;;;;;;;;;;4995847;28;20092;-53
2021/03/25 09:05:36;;;;;;;40.38;22.10;;;;;;;;;;4996075;28;20499;-52
2021/03/25 09:08:06;;;;;;;27.20;19.30;;;;;;;;;;4995595;28;20451;-52
2021/03/25 09:10:40;;;;;;;42.25;22.23;;;;;;;;;;4994844;28;20050;-51
2021/03/25 09:13:08;;;;;;;36.97;25.60;;;;;;;;;;4994094;28;20411;-51
2021/03/25 09:15:35;;;;;;;32.85;21.48;;;;;;;;;;5015776;28;20072;-51
2021/03/25 09:18:06;;;;;;;32.03;22.88;;;;;;;;;;5015899;28;20026;-51
2021/03/25 09:20:33;;;;;;;28.50;19.40;;;;;;;;;;5015846;28;20022;-51
2021/03/25 09:23:00;;;;;;;28.10;18.92;;;;;;;;;;5015918;28;20052;-49
2021/03/25 09:25:27;;;;;;;25.48;17.52;;;;;;;;;;5015694;28;20366;-49
2021/03/25 09:27:57;;;;;;;28.23;15.50;;;;;;;;;;5015799;28;20018;-52
2021/03/25 09:30:36;;;;;;;46.07;21.77;;;;;;;;;;5015594;28;20021;-50
2021/03/25 09:33:21;;;;;;;26.35;14.23;;;;;;;;;;5015873;28;20120;-49
2021/03/25 09:35:47;;;;;;;26.20;16.67;;;;;;;;;;5013287;28;20067;-51
2021/03/25 09:38:24;;;;;;;19.63;13.38;;;;;;;;;;5015909;28;20381;-52
2021/03/25 09:40:52;;;;;;;24.20;14.38;;;;;;;;;;5013491;28;20129;-50
2021/03/25 09:43:27;;;;;;;21.05;11.63;;;;;;;;;;5015569;28;20044;-52
2021/03/25 09:46:00;;;;;;;22.50;12.88;;;;;;;;;;5013865;28;20018;-52
2021/03/25 09:48:29;;;;;;;27.52;14.90;;;;;;;;;;5015790;28;20026;-48
2021/03/25 09:51:17;;;;;;;26.85;16.15;;;;;;;;;;5015286;28;20018;-48
2021/03/25 09:53:45;;;;;;;67.45;37.90;;;;;;;;;;5008500;28;20462;-47
2021/03/25 09:56:32;;;;;;;80.60;43.75;;;;;;;;;;5015611;28;20050;-47
2021/03/25 09:58:58;;;;;;;44.33;25.85;;;;;;;;;;5007820;28;20018;-46
2021/03/25 10:01:43;;;;;;;54.25;31.25;;;;;;;;;;5015599;28;20623;-47
2021/03/25 10:04:26;;;;;;;103.25;57.33;;;;;;;;;;5013948;28;20019;-47
2021/03/25 10:07:01;;;;;;;31.63;18.17;;;;;;;;;;5016157;28;20109;-47
2021/03/25 10:09:47;;;;;;;29.83;19.73;;;;;;;;;;5014667;28;20081;-50
2021/03/25 10:12:14;;;;;;;34.83;19.98;;;;;;;;;;4986890;28;20056;-47
2021/03/25 10:14:48;;;;;;;73.22;42.22;;;;;;;;;;5013307;28;20516;-56
2021/03/25 10:17:32;;;;;;;73.05;42.80;;;;;;;;;;5015983;28;20088;-48
2021/03/25 10:19:58;;;;;;;23.65;16.27;;;;;;;;;;5014763;28;20029;-50
2021/03/25 10:22:25;;;;;;;29.00;17.65;;;;;;;;;;5015928;28;20072;-47
2021/03/25 10:24:55;;;;;;;54.58;32.50;;;;;;;;;;5014451;28;20506;-49
2021/03/25 10:27:21;;;;;;;28.08;17.75;;;;;;;;;;5015885;28;20528;-47
2021/03/25 10:29:48;;;;;;;36.28;22.17;;;;;;;;;;5013240;28;20367;-48
2021/03/25 10:32:37;;;;;;;61.03;37.03;;;;;;;;;;5015841;28;20022;-49
2021/03/25 10:35:07;;;;;;;56.90;34.47;;;;;;;;;;4954458;29;20051;-48
2021/03/25 10:37:35;;;;;;;74.68;43.85;;;;;;;;;;4955283;29;20046;-47
2021/03/25 10:40:13;;;;;;;68.13;30.20;;;;;;;;;;4953998;28;20067;-49
2021/03/25 10:42:40;;;;;;;80.20;45.67;;;;;;;;;;4955440;29;20043;-48
2021/03/25 10:45:31;;;;;;;58.97;31.45;;;;;;;;;;4955218;29;20023;-49
2021/03/25 10:48:01;;;;;;;50.42;25.92;;;;;;;;;;4955229;29;20027;-47
2021/03/25 10:50:33;;;;;;;35.70;21.75;;;;;;;;;;4955308;29;20042;-48
2021/03/25 10:53:03;;;;;;;27.02;12.98;;;;;;;;;;4955097;29;20035;-47
2021/03/25 10:55:55;;;;;;;26.83;11.73;;;;;;;;;;4954978;29;20115;-48
2021/03/25 10:58:25;;;;;;;34.13;19.38;;;;;;;;;;4952990;28;20075;-46
2021/03/25 11:01:00;;;;;;;42.03;24.15;;;;;;;;;;4954751;29;20086;-48
2021/03/25 11:03:37;;;;;;;116.75;62.67;;;;;;;;;;4954788;29;20114;-49
2021/03/25 11:06:03;;;;;;;33.83;21.20;;;;;;;;;;4954782;29;20034;-49
2021/03/25 11:08:32;;;;;;;106.30;60.78;;;;;;;;;;4954873;29;20023;-50
2021/03/25 11:11:07;;;;;;;75.88;42.70;;;;;;;;;;4956373;28;20519;-50
2021/03/25 11:13:33;;;;;;;70.85;43.40;;;;;;;;;;5015283;28;20466;-48
2021/03/25 11:15:59;;;;;;;109.10;57.13;;;;;;;;;;5014515;28;20037;-51
2021/03/25 11:18:31;;;;;;;264.83;63.05;;;;;;;;;;5014125;28;20553;-47
2021/03/25 11:20:58;;;;;;;79.07;38.00;;;;;;;;;;5013619;28;20080;-47
2021/03/25 11:23:25;;;;;;;150.85;65.60;;;;;;;;;;5014801;28;20025;-48
2021/03/25 11:25:56;;;;;;;69.68;28.80;;;;;;;;;;5015086;28;20029;-48
2021/03/25 11:28:25;;;;;;;47.33;23.03;;;;;;;;;;5014904;28;20514;-48
2021/03/25 11:30:53;;;;;;;116.88;28.00;;;;;;;;;;5014828;28;20034;-48
2021/03/25 11:33:22;;;;;;;73.15;37.22;;;;;;;;;;5014775;28;20029;-46
2021/03/25 11:35:48;;;;;;;94.95;58.83;;;;;;;;;;5014502;28;20037;-47
2021/03/25 11:38:30;;;;;;;58.78;33.70;;;;;;;;;;5014555;28;20116;-48
2021/03/25 11:41:00;;;;;;;32.72;18.58;;;;;;;;;;5014542;28;20459;-47
2021/03/25 11:43:39;;;;;;;76.22;30.30;;;;;;;;;;5014583;28;20026;-47
2021/03/25 11:46:05;;;;;;;76.05;34.72;;;;;;;;;;5014299;28;20474;-46
2021/03/25 11:48:33;;;;;;;50.95;28.27;;;;;;;;;;5014378;28;20033;-45
2021/03/25 11:51:17;;;;;;;89.60;44.05;;;;;;;;;;5013855;28;20022;-48
2021/03/25 11:53:48;;;;;;;54.58;30.95;;;;;;;;;;5014394;28;20034;-49
2021/03/25 11:56:36;;;;;;;38.83;19.05;;;;;;;;;;5014092;28;20437;-47
2021/03/25 11:59:08;;;;;;;35.78;17.30;;;;;;;;;;5014194;28;20152;-46
2021/03/25 12:01:34;;;;;;;111.82;52.25;;;;;;;;;;5012581;28;20431;-46
2021/03/25 12:04:23;;;;;;;59.00;34.67;;;;;;;;;;5012674;28;20032;-46
2021/03/25 12:06:58;;;;;;;51.20;25.80;;;;;;;;;;5008242;28;20040;-47
2021/03/25 12:09:24;;;;;;;85.95;45.85;;;;;;;;;;5009315;28;20406;-48
2021/03/25 12:11:51;;;;;;;70.60;40.17;;;;;;;;;;5011996;28;20042;-48
2021/03/25 12:14:18;;;;;;;49.85;27.27;;;;;;;;;;5012105;28;20180;-48
2021/03/25 12:16:45;;;;;;;57.65;30.92;;;;;;;;;;5012847;28;20037;-46
2021/03/25 12:19:11;;;;;;;36.25;17.02;;;;;;;;;;5013201;28;20058;-46
2021/03/25 12:21:38;;;;;;;53.25;24.48;;;;;;;;;;5013456;28;20028;-47
2021/03/25 12:24:06;;;;;;;75.10;25.60;;;;;;;;;;5013372;28;20053;-47
2021/03/25 12:26:33;;;;;;;73.35;36.33;;;;;;;;;;5010839;28;20488;-52
2021/03/25 12:29:04;;;;;;;82.03;37.92;;;;;;;;;;5012868;28;20034;-47
2021/03/25 12:31:37;;;;;;;46.13;23.10;;;;;;;;;;5012297;28;20026;-47
2021/03/25 12:34:06;;;;;;;32.50;16.00;;;;;;;;;;5013135;28;20026;-47
2021/03/25 12:36:32;;;;;;;46.63;23.42;;;;;;;;;;5013519;28;20037;-47
2021/03/25 12:38:59;;;;;;;25.25;14.48;;;;;;;;;;5013685;28;20113;-48
2021/03/25 12:41:31;;;;;;;26.17;15.10;;;;;;;;;;5012263;28;20441;-47
2021/03/25 12:43:58;;;;;;;11.23;7.28;;;;;;;;;;5013604;28;20026;-47
2021/03/25 12:46:24;;;;;;;35.25;14.60;;;;;;;;;;5013699;28;20049;-48
2021/03/25 12:48:50;;;;;;;42.40;18.73;;;;;;;;;;5013659;28;20025;-47
2021/03/25 12:51:16;;;;;;;38.83;18.80;;;;;;;;;;5013549;28;20072;-47
2021/03/25 12:53:45;;;;;;;26.92;13.00;;;;;;;;;;5013688;28;20469;-48
2021/03/25 12:56:16;;;;;;;23.58;11.85;;;;;;;;;;5013623;28;20374;-48
2021/03/25 12:58:42;;;;;;;18.13;10.63;;;;;;;;;;5013883;28;20106;-48
2021/03/25 13:01:13;;;;;;;16.23;8.65;;;;;;;;;;5013491;28;20600;-48
2021/03/25 13:03:39;;;;;;;21.42;7.30;;;;;;;;;;5013362;28;20104;-48
2021/03/25 13:06:06;;;;;;;22.20;9.80;;;;;;;;;;5013458;28;20026;-49
2021/03/25 13:08:35;;;;;;;16.73;10.45;;;;;;;;;;5013445;28;20022;-47
2021/03/25 13:11:01;;;;;;;23.42;11.80;;;;;;;;;;5013129;28;20421;-47
2021/03/25 13:13:27;;;;;;;25.75;13.15;;;;;;;;;;5013449;28;20034;-47
2021/03/25 13:15:54;;;;;;;32.03;12.07;;;;;;;;;;5013346;28;20084;-49
2021/03/25 13:18:21;;;;;;;12.80;7.18;;;;;;;;;;5011981;28;20065;-47
2021/03/25 13:20:48;;;;;;;14.50;8.40;;;;;;;;;;5013278;28;20105;-47
2021/03/25 13:23:14;;;;;;;18.33;8.48;;;;;;;;;;5013297;28;20026;-48
2021/03/25 13:25:41;;;;;;;13.25;8.10;;;;;;;;;;5013897;28;20022;-48
2021/03/25 13:28:08;;;;;;;18.42;9.23;;;;;;;;;;5013467;28;20359;-47
2021/03/25 13:30:34;;;;;;;16.88;9.75;;;;;;;;;;5013251;28;20018;-47
2021/03/25 13:33:01;;;;;;;14.02;9.18;;;;;;;;;;5013302;28;20033;-47
2021/03/25 13:35:27;;;;;;;16.30;9.30;;;;;;;;;;5012998;28;20363;-48
2021/03/25 13:37:56;;;;;;;14.05;9.05;;;;;;;;;;5013086;28;20112;-48
2021/03/25 13:40:24;;;;;;;18.30;9.63;;;;;;;;;;5013195;28;20493;-47
2021/03/25 13:42:50;;;;;;;14.60;8.00;;;;;;;;;;5013278;28;20029;-48
2021/03/25 13:45:17;;;;;;;12.50;7.20;;;;;;;;;;5015578;28;20026;-47
2021/03/25 13:47:43;;;;;;;22.80;8.88;;;;;;;;;;5016930;28;20018;-47
2021/03/25 13:50:11;;;;;;;16.05;9.32;;;;;;;;;;5016635;28;20054;-47
2021/03/25 13:52:39;;;;;;;17.63;8.20;;;;;;;;;;5016649;28;20058;-47
2021/03/25 13:55:09;;;;;;;13.93;7.45;;;;;;;;;;5016833;28;20018;-47
2021/03/25 13:57:35;;;;;;;12.88;8.48;;;;;;;;;;5016644;28;20459;-47
2021/03/25 14:00:03;;;;;;;15.55;8.85;;;;;;;;;;5016502;28;20112;-47
2021/03/25 14:02:29;;;;;;;24.77;10.52;;;;;;;;;;5016439;28;20041;-47
2021/03/25 14:04:55;;;;;;;14.70;9.82;;;;;;;;;;5016654;28;20501;-47
2021/03/25 14:07:21;;;;;;;17.52;8.05;;;;;;;;;;5016716;28;20033;-50
2021/03/25 14:09:48;;;;;;;46.30;11.23;;;;;;;;;;5016455;28;20022;-47
2021/03/25 14:12:14;;;;;;;17.70;10.75;;;;;;;;;;5016188;28;20072;-47
2021/03/25 14:14:40;;;;;;;18.25;8.50;;;;;;;;;;5016468;28;20026;-48
2021/03/25 14:17:06;;;;;;;18.55;9.32;;;;;;;;;;5016157;28;20543;-47
2021/03/25 14:19:32;;;;;;;18.20;8.70;;;;;;;;;;5016109;28;20030;-49
2021/03/25 14:21:58;;;;;;;18.27;9.75;;;;;;;;;;5016472;28;20111;-48
2021/03/25 14:24:24;;;;;;;23.95;11.05;;;;;;;;;;5016026;28;20161;-47
2021/03/25 14:26:50;;;;;;;16.92;10.63;;;;;;;;;;5016009;28;20022;-48
2021/03/25 14:29:16;;;;;;;18.10;11.75;;;;;;;;;;5016105;28;20026;-48
2021/03/25 14:31:42;;;;;;;19.52;11.05;;;;;;;;;;5016275;28;20072;-48
2021/03/25 14:34:08;;;;;;;37.53;14.90;;;;;;;;;;5015889;28;20034;-48
2021/03/25 14:36:35;;;;;;;26.52;14.70;;;;;;;;;;5015782;28;20030;-47
2021/03/25 14:39:01;;;;;;;20.95;12.95;;;;;;;;;;5015967;28;20060;-47